Estación Meteorológica Peña el Pijo (Robertgarden) [ 12/10/18 12:03:42 CET ]

Fecha Hora Presion(HPa) Temp (°C) Humedad % Rocio (°C) Viento ( m/s) Direccion Lluvia 1Hora(mm) Lluvia 24H(mm) LLuvia Total(mm)
2018-Oct-18 01:01:55 1005.800 7.8 82 4.9         16.57
2018-Oct-18 02:02:09 1005.100 7.4 84 4.9         16.57
2018-Oct-18 03:01:43 1004.500 7.2 84 4.7         16.57
2018-Oct-18 04:04:08 1003.800 6.4 85 4.0         16.57
2018-Oct-18 05:03:08 1003.100 5.9 86 3.7         16.57
2018-Oct-18 06:02:00 1002.700 5.8 87 3.8         16.57
2018-Oct-18 07:01:32 1002.500 5.8 87 3.8         16.57
2018-Oct-18 08:01:51 1002.200 5.8 88 4.0         16.57
2018-Oct-18 09:01:46 1002.000 5.9 89 4.2         16.57
2018-Oct-18 10:01:49 1001.700 7.9 89 6.2         16.57
2018-Oct-18 11:01:38 1002.000 10.2 89 8.4         16.57
2018-Oct-18 12:01:53 1001.800 13.5 82 10.5         16.57
2018-Oct-18 13:01:48 1001.400 15.8 75 11.4         16.57
2018-Oct-18 14:01:58 1001.100 16.4 68 10.5         16.57
2018-Oct-18 15:01:47 1000.200 16.0 65 9.4         16.57
2018-Oct-18 16:01:54 1000.200 16.4 63 9.3         16.57
2018-Oct-18 17:01:46 999.700 16.9 60 9.1         16.57
2018-Oct-18 18:01:42 999.800 15.2 64 8.4         16.57
2018-Oct-18 19:01:53 999.900 14.3 71 9.1         16.57
2018-Oct-18 20:01:46 1001.200 11.8 81 8.7     7.25 7.25 23.82
2018-Oct-18 21:01:43 1001.600 10.4 84 7.8     3.10 10.36 26.93
2018-Oct-18 22:01:46 1002.000 10.1 86 7.8     0.51 10.87 27.45
2018-Oct-18 23:01:49 1002.100 10.1 87 8.0       10.87 27.45

Temperatura Máxima:16°    Temperatura Mínima:
Presión Máxima:1005.800 Hpa    Presión Mínima:999.700 Hpa


Volver